createdAt,value
2017-12-28T00:01:32.885Z,94631.08
2017-12-28T00:03:59.684Z,94629.36
2017-12-28T00:06:26.226Z,94641.45
2017-12-28T00:08:52.660Z,94632.37
2017-12-28T00:11:19.196Z,94641.17
2017-12-28T00:13:45.582Z,94639.12
2017-12-28T00:16:12.692Z,94631.26
2017-12-28T00:18:40.397Z,94632.01
2017-12-28T00:21:08.514Z,94622.39
2017-12-28T00:23:35.710Z,94626.52
2017-12-28T00:26:03.058Z,94624.02
2017-12-28T00:28:35.041Z,94625.84
2017-12-28T00:31:02.736Z,94632.37
2017-12-28T00:33:29.432Z,94640.95
2017-12-28T00:35:58.252Z,94645.77
2017-12-28T00:38:25.859Z,94640.90
2017-12-28T00:40:58.017Z,94656.73
2017-12-28T00:43:24.949Z,94638.35
2017-12-28T00:45:52.341Z,94660.31
2017-12-28T00:48:18.929Z,94648.45
2017-12-28T00:50:45.728Z,94653.73
2017-12-28T00:53:12.289Z,94661.12
2017-12-28T00:55:39.459Z,94664.38
2017-12-28T00:58:05.955Z,94677.53
2017-12-28T01:00:32.401Z,94675.55
2017-12-28T01:02:58.935Z,94681.66
2017-12-28T01:05:25.667Z,94668.34
2017-12-28T01:07:52.233Z,94674.77
2017-12-28T01:10:18.527Z,94670.59
2017-12-28T01:12:44.857Z,94679.73
2017-12-28T01:15:11.529Z,94686.67
2017-12-28T01:17:38.253Z,94690.88
2017-12-28T01:20:04.806Z,94693.13
2017-12-28T01:22:31.354Z,94705.03
2017-12-28T01:24:57.919Z,94709.79
2017-12-28T01:27:24.785Z,94711.41
2017-12-28T01:29:51.305Z,94719.16
2017-12-28T01:32:19.867Z,94727.33
2017-12-28T01:34:46.486Z,94727.40
2017-12-28T01:37:13.140Z,94734.23
2017-12-28T01:39:39.641Z,94737.28
2017-12-28T01:42:06.590Z,94745.70
2017-12-28T01:44:33.213Z,94745.00
2017-12-28T01:46:59.578Z,94747.73
2017-12-28T01:49:26.638Z,94750.72
2017-12-28T01:51:53.136Z,94745.61
2017-12-28T01:54:19.504Z,94742.20
2017-12-28T01:56:46.318Z,94748.63
2017-12-28T01:59:12.802Z,94750.81
2017-12-28T02:01:39.158Z,94750.14
2017-12-28T02:04:05.486Z,94764.97
2017-12-28T02:06:33.066Z,94762.09
2017-12-28T02:09:00.220Z,94755.72
2017-12-28T02:11:26.736Z,94766.23
2017-12-28T02:13:53.220Z,94765.20
2017-12-28T02:16:20.105Z,94776.58
2017-12-28T02:21:33.105Z,94774.23
2017-12-28T02:24:00.222Z,94782.25
2017-12-28T02:26:26.712Z,94789.39
2017-12-28T02:28:53.258Z,94790.70
2017-12-28T02:31:19.682Z,94796.17
2017-12-28T02:33:45.904Z,94797.88
2017-12-28T02:36:12.520Z,94799.30
2017-12-28T02:38:38.911Z,94796.98
2017-12-28T02:41:05.447Z,94800.77
2017-12-28T02:43:31.810Z,94806.61
2017-12-28T02:45:58.254Z,94805.48
2017-12-28T02:48:24.555Z,94810.77
2017-12-28T02:50:51.124Z,94813.17
2017-12-28T02:53:17.436Z,94814.22
2017-12-28T02:55:43.859Z,94809.45
2017-12-28T02:58:10.541Z,94823.84
2017-12-28T03:00:37.044Z,94821.30
2017-12-28T03:03:03.584Z,94827.81
2017-12-28T03:05:30.094Z,94831.13
2017-12-28T03:07:56.540Z,94832.86
2017-12-28T03:10:22.993Z,94830.27
2017-12-28T03:12:49.722Z,94830.45
2017-12-28T03:15:16.331Z,94831.69
2017-12-28T03:17:42.706Z,94841.89
2017-12-28T03:20:09.254Z,94845.19
2017-12-28T03:22:35.716Z,94851.72
2017-12-28T03:25:02.393Z,94851.23
2017-12-28T03:27:28.944Z,94863.64
2017-12-28T03:29:55.366Z,94862.55
2017-12-28T03:32:21.731Z,94866.77
2017-12-28T03:34:48.016Z,94865.63
2017-12-28T03:37:14.887Z,94875.95
2017-12-28T03:39:41.494Z,94878.02
2017-12-28T03:42:08.161Z,94884.59
2017-12-28T03:44:34.806Z,94890.95
2017-12-28T03:47:01.452Z,94893.50
2017-12-28T03:49:28.225Z,94892.60
2017-12-28T03:51:54.785Z,94892.27
2017-12-28T03:54:21.411Z,94894.97
2017-12-28T03:56:47.586Z,94904.62
2017-12-28T03:59:13.973Z,94910.09
2017-12-28T04:01:41.040Z,94918.85
2017-12-28T04:04:07.647Z,94915.73
2017-12-28T04:06:33.995Z,94917.56
2017-12-28T04:09:00.415Z,94925.34
2017-12-28T04:11:26.733Z,94924.70
2017-12-28T04:13:53.409Z,94921.11
2017-12-28T04:16:19.983Z,94930.41
2017-12-28T04:18:47.133Z,94933.37
2017-12-28T04:21:14.636Z,94922.30
2017-12-28T04:23:40.831Z,94934.14
2017-12-28T04:26:07.361Z,94937.57
2017-12-28T04:28:33.733Z,94939.96
2017-12-28T04:31:00.340Z,94944.94
2017-12-28T04:33:26.545Z,94950.25
2017-12-28T04:35:52.924Z,94950.65
2017-12-28T04:38:19.221Z,94949.66
2017-12-28T04:40:45.774Z,94949.91
2017-12-28T04:43:12.108Z,94961.30
2017-12-28T04:45:38.784Z,94965.34
2017-12-28T04:48:05.340Z,94965.61
2017-12-28T04:50:31.964Z,94967.88
2017-12-28T04:52:58.644Z,94969.57
2017-12-28T04:55:24.907Z,94960.01
2017-12-28T04:57:51.356Z,94964.61
2017-12-28T05:00:17.713Z,94974.84
2017-12-28T05:02:44.075Z,94973.72
2017-12-28T05:05:10.764Z,94977.66
2017-12-28T05:07:37.122Z,94987.83
2017-12-28T05:10:03.474Z,94986.91
2017-12-28T05:12:29.842Z,94992.75
2017-12-28T05:14:56.294Z,94994.34
2017-12-28T05:17:22.803Z,95002.13
2017-12-28T05:19:49.650Z,95011.04
2017-12-28T05:22:16.097Z,95013.73
2017-12-28T05:24:42.511Z,95013.34
2017-12-28T05:27:08.999Z,95018.98
2017-12-28T05:29:35.435Z,95028.41
2017-12-28T05:32:01.847Z,95030.13
2017-12-28T05:34:28.194Z,95029.66
2017-12-28T05:36:54.505Z,95034.41
2017-12-28T05:39:20.854Z,95028.28
2017-12-28T05:41:47.121Z,95032.33
2017-12-28T05:44:13.448Z,95032.48
2017-12-28T05:46:40.007Z,95036.92
2017-12-28T05:49:06.384Z,95040.90
2017-12-28T05:51:33.118Z,95044.57
2017-12-28T05:53:59.891Z,95042.91
2017-12-28T05:56:26.049Z,95053.27
2017-12-28T05:58:52.550Z,95047.77
2017-12-28T06:01:18.914Z,95046.09
2017-12-28T06:03:45.423Z,95052.55
2017-12-28T06:06:11.804Z,95064.09
2017-12-28T06:08:40.015Z,95072.30
2017-12-28T06:11:07.079Z,95085.30
2017-12-28T06:13:33.680Z,95087.23
2017-12-28T06:15:59.967Z,95092.84
2017-12-28T06:18:26.846Z,95095.58
2017-12-28T06:20:53.113Z,95096.97
2017-12-28T06:23:19.536Z,95108.31
2017-12-28T06:25:46.008Z,95112.44
2017-12-28T06:28:15.472Z,95123.78
2017-12-28T06:33:35.952Z,95130.94
2017-12-28T06:36:04.837Z,95137.45
2017-12-28T06:38:32.464Z,95137.17
2017-12-28T06:40:58.866Z,95150.20
2017-12-28T06:43:26.097Z,95141.74
2017-12-28T06:45:52.792Z,95152.60
2017-12-28T06:48:18.988Z,95158.83
2017-12-28T06:50:45.445Z,95158.50
2017-12-28T06:53:13.065Z,95162.67
2017-12-28T06:55:40.831Z,95163.73
2017-12-28T06:58:07.313Z,95173.11
2017-12-28T07:00:34.126Z,95181.88
2017-12-28T07:03:00.648Z,95190.36
2017-12-28T07:05:26.977Z,95193.34
2017-12-28T07:07:53.402Z,95215.16
2017-12-28T07:10:19.664Z,95219.76
2017-12-28T07:12:46.272Z,95215.58
2017-12-28T07:15:12.755Z,95214.86
2017-12-28T07:17:39.137Z,95219.05
2017-12-28T07:20:05.658Z,95219.26
2017-12-28T07:22:32.135Z,95224.88
2017-12-28T07:24:58.391Z,95235.06
2017-12-28T07:27:24.690Z,95244.22
2017-12-28T07:29:51.022Z,95249.80
2017-12-28T07:32:17.580Z,95253.38
2017-12-28T07:34:43.989Z,95262.02
2017-12-28T07:37:10.678Z,95267.91
2017-12-28T07:39:37.328Z,95261.30
2017-12-28T07:42:03.907Z,95265.27
2017-12-28T07:44:30.457Z,95270.55
2017-12-28T07:46:57.156Z,95279.88
2017-12-28T07:49:23.598Z,95272.04
2017-12-28T07:51:51.003Z,95279.95
2017-12-28T07:54:17.708Z,95283.50
2017-12-28T07:56:44.388Z,95290.87
2017-12-28T07:59:11.100Z,95295.86
2017-12-28T08:01:37.500Z,95301.23
2017-12-28T08:04:03.838Z,95306.64
2017-12-28T08:06:30.537Z,95311.88
2017-12-28T08:08:56.728Z,95312.78
2017-12-28T08:11:23.233Z,95315.42
2017-12-28T08:16:23.184Z,95326.00
2017-12-28T08:18:49.536Z,95328.43
2017-12-28T08:21:16.034Z,95335.09
2017-12-28T08:23:42.469Z,95342.12
2017-12-28T08:26:08.944Z,95339.43
2017-12-28T08:28:35.250Z,95344.00
2017-12-28T08:31:01.579Z,95347.28
2017-12-28T08:33:28.016Z,95346.64
2017-12-28T08:35:54.447Z,95355.77
2017-12-28T08:38:21.245Z,95361.95
2017-12-28T08:40:47.544Z,95375.59
2017-12-28T08:43:14.185Z,95377.81
2017-12-28T08:45:40.419Z,95386.09
2017-12-28T08:48:06.935Z,95383.19
2017-12-28T08:50:33.423Z,95394.53
2017-12-28T08:53:00.161Z,95388.05
2017-12-28T08:55:26.555Z,95396.61
2017-12-28T08:57:53.383Z,95404.94
2017-12-28T09:00:20.073Z,95418.45
2017-12-28T09:02:46.297Z,95418.92
2017-12-28T09:05:16.773Z,95427.35
2017-12-28T09:07:43.510Z,95430.47
2017-12-28T09:10:09.771Z,95446.50
2017-12-28T09:12:36.375Z,95454.14
2017-12-28T09:15:03.051Z,95456.38
2017-12-28T09:17:29.160Z,95455.47
2017-12-28T09:19:59.509Z,95456.32
2017-12-28T09:22:26.073Z,95457.99
2017-12-28T09:24:57.480Z,95463.67
2017-12-28T09:27:24.023Z,95469.82
2017-12-28T09:29:55.209Z,95473.37
2017-12-28T09:32:21.986Z,95473.92
2017-12-28T09:34:48.438Z,95477.34
2017-12-28T09:37:19.012Z,95486.33
2017-12-28T09:39:45.167Z,95478.80
2017-12-28T09:42:11.421Z,95483.14
2017-12-28T09:44:37.910Z,95488.99
2017-12-28T09:47:04.248Z,95491.14
2017-12-28T09:49:30.622Z,95494.84
2017-12-28T09:51:57.140Z,95496.22
2017-12-28T09:54:27.562Z,95497.28
2017-12-28T09:56:54.222Z,95504.02
2017-12-28T09:59:21.667Z,95505.83
2017-12-28T10:01:48.403Z,95507.70
2017-12-28T10:04:15.522Z,95500.62
2017-12-28T10:06:41.926Z,95515.09
2017-12-28T10:09:08.630Z,95507.11
2017-12-28T10:11:36.140Z,95507.66
2017-12-28T10:14:03.019Z,95510.99
2017-12-28T10:16:31.221Z,95524.31
2017-12-28T10:18:58.163Z,95525.08
2017-12-28T10:21:24.994Z,95518.72
2017-12-28T10:23:52.639Z,95519.83
2017-12-28T10:26:19.101Z,95523.03
2017-12-28T10:28:45.525Z,95524.31
2017-12-28T10:31:12.181Z,95524.52
2017-12-28T10:33:38.579Z,95528.83
2017-12-28T10:36:05.183Z,95532.67
2017-12-28T10:38:35.546Z,95535.92
2017-12-28T10:41:02.018Z,95544.08
2017-12-28T10:43:29.307Z,95544.98
2017-12-28T10:45:55.626Z,95548.69
2017-12-28T10:48:24.465Z,95548.73
2017-12-28T10:50:50.887Z,95550.91
2017-12-28T10:53:17.819Z,95554.33
2017-12-28T10:55:44.464Z,95552.31
2017-12-28T10:58:11.059Z,95550.39
2017-12-28T11:00:37.900Z,95558.88
2017-12-28T11:03:04.677Z,95551.91
2017-12-28T11:05:32.267Z,95561.23
2017-12-28T11:07:58.514Z,95563.03
2017-12-28T11:10:24.578Z,95564.02
2017-12-28T11:12:50.733Z,95566.69
2017-12-28T11:15:17.012Z,95571.73
2017-12-28T11:17:43.132Z,95570.20
2017-12-28T11:20:09.288Z,95573.84
2017-12-28T11:22:35.902Z,95579.61
2017-12-28T11:25:02.454Z,95585.55
2017-12-28T11:27:29.133Z,95588.53
2017-12-28T11:29:55.995Z,95588.66
2017-12-28T11:32:22.460Z,95592.34
2017-12-28T11:34:49.145Z,95596.71
2017-12-28T11:37:16.552Z,95598.99
2017-12-28T11:39:42.646Z,95606.14
2017-12-28T11:42:08.696Z,95599.73
2017-12-28T11:44:35.876Z,95598.80
2017-12-28T11:47:01.957Z,95605.97
2017-12-28T11:49:28.507Z,95607.58
2017-12-28T11:52:00.777Z,95615.94
2017-12-28T11:54:31.021Z,95612.73
2017-12-28T11:57:02.052Z,95614.28
2017-12-28T11:59:28.157Z,95613.16
2017-12-28T12:02:01.401Z,95608.88
2017-12-28T12:04:27.723Z,95614.85
2017-12-28T12:06:59.589Z,95602.66
2017-12-28T12:09:25.707Z,95608.39
2017-12-28T12:11:54.041Z,95620.58
2017-12-28T12:14:20.165Z,95625.70
2017-12-28T12:16:46.189Z,95623.61
2017-12-28T12:19:13.105Z,95624.08
2017-12-28T12:21:41.287Z,95625.67
2017-12-28T12:24:07.414Z,95625.33
2017-12-28T12:26:33.475Z,95621.65
2017-12-28T12:28:59.531Z,95620.58
2017-12-28T12:31:25.620Z,95628.39
2017-12-28T12:33:51.683Z,95631.03
2017-12-28T12:36:17.805Z,95628.72
2017-12-28T12:38:43.965Z,95630.42
2017-12-28T12:41:11.012Z,95642.23
2017-12-28T12:43:37.057Z,95647.99
2017-12-28T12:46:03.178Z,95654.03
2017-12-28T12:48:29.262Z,95650.81
2017-12-28T12:50:55.380Z,95654.77
2017-12-28T12:53:21.454Z,95651.98
2017-12-28T12:55:47.585Z,95649.74
2017-12-28T12:58:13.615Z,95652.58
2017-12-28T13:00:39.621Z,95658.20
2017-12-28T13:03:05.642Z,95665.22
2017-12-28T13:05:31.752Z,95668.09
2017-12-28T13:07:58.817Z,95665.09
2017-12-28T13:10:24.850Z,95667.49
2017-12-28T13:12:50.904Z,95673.75
2017-12-28T13:15:17.148Z,95672.76
2017-12-28T13:17:43.123Z,95675.48
2017-12-28T13:20:09.317Z,95680.82
2017-12-28T13:22:36.033Z,95669.17
2017-12-28T13:25:02.130Z,95678.35
2017-12-28T13:27:28.241Z,95682.20
2017-12-28T13:29:54.351Z,95689.22
2017-12-28T13:32:20.465Z,95688.91
2017-12-28T13:34:46.533Z,95686.57
2017-12-28T13:37:12.561Z,95694.42
2017-12-28T13:39:38.729Z,95700.02
2017-12-28T13:42:04.815Z,95701.37
2017-12-28T13:44:33.098Z,95706.91
2017-12-28T13:46:59.294Z,95710.02
2017-12-28T13:49:25.284Z,95710.50
2017-12-28T13:51:51.494Z,95719.20
2017-12-28T13:54:17.673Z,95728.64
2017-12-28T13:56:43.907Z,95730.43
2017-12-28T13:59:10.198Z,95733.30
2017-12-28T14:01:36.468Z,95736.09
2017-12-28T14:04:02.807Z,95733.76
2017-12-28T14:06:29.056Z,95725.89
2017-12-28T14:08:55.186Z,95741.64
2017-12-28T14:11:21.277Z,95742.77
2017-12-28T14:13:47.680Z,95741.91
2017-12-28T14:16:13.906Z,95749.50
2017-12-28T14:18:40.027Z,95755.41
2017-12-28T14:21:06.076Z,95761.90
2017-12-28T14:23:32.200Z,95760.66
2017-12-28T14:25:58.352Z,95766.82
2017-12-28T14:28:24.576Z,95767.28
2017-12-28T14:30:50.865Z,95773.73
2017-12-28T14:33:16.938Z,95779.88
2017-12-28T14:35:43.166Z,95779.22
2017-12-28T14:38:09.239Z,95783.62
2017-12-28T14:40:35.280Z,95787.39
2017-12-28T14:43:01.354Z,95795.52
2017-12-28T14:45:27.474Z,95793.92
2017-12-28T14:47:53.730Z,95799.03
2017-12-28T14:50:19.780Z,95801.65
2017-12-28T14:52:45.912Z,95804.11
2017-12-28T14:55:12.070Z,95807.45
2017-12-28T14:57:38.301Z,95812.05
2017-12-28T15:00:04.429Z,95816.59
2017-12-28T15:02:30.496Z,95827.25
2017-12-28T15:04:56.573Z,95833.97
2017-12-28T15:07:22.631Z,95842.32
2017-12-28T15:09:48.893Z,95837.19
2017-12-28T15:12:14.957Z,95843.39
2017-12-28T15:14:41.041Z,95845.09
2017-12-28T15:17:07.050Z,95844.69
2017-12-28T15:19:33.244Z,95843.72
2017-12-28T15:21:59.335Z,95847.16
2017-12-28T15:24:25.428Z,95848.97
2017-12-28T15:26:51.546Z,95859.11
2017-12-28T15:29:17.918Z,95868.61
2017-12-28T15:31:44.103Z,95872.77
2017-12-28T15:34:10.190Z,95875.39
2017-12-28T15:36:36.357Z,95884.46
2017-12-28T15:39:02.567Z,95889.58
2017-12-28T15:41:28.748Z,95894.43
2017-12-28T15:43:55.294Z,95896.72
2017-12-28T15:46:21.550Z,95896.19
2017-12-28T15:48:47.622Z,95897.02
2017-12-28T15:51:13.827Z,95901.16
2017-12-28T15:53:40.034Z,95907.52
2017-12-28T15:56:06.156Z,95913.63
2017-12-28T15:58:32.190Z,95921.84
2017-12-28T16:01:12.826Z,95930.37
2017-12-28T16:03:38.987Z,95927.84
2017-12-28T16:06:05.059Z,95937.61
2017-12-28T16:08:31.280Z,95939.47
2017-12-28T16:10:57.536Z,95943.85
2017-12-28T16:13:23.545Z,95946.48
2017-12-28T16:15:50.786Z,95957.12
2017-12-28T16:18:16.849Z,95956.34
2017-12-28T16:20:43.084Z,95957.83
2017-12-28T16:23:09.243Z,95951.45
2017-12-28T16:25:35.330Z,95959.98
2017-12-28T16:28:02.146Z,95965.86
2017-12-28T16:30:28.274Z,95966.43
2017-12-28T16:32:54.407Z,95970.10
2017-12-28T16:35:20.731Z,95974.59
2017-12-28T16:37:46.808Z,95974.77
2017-12-28T16:40:12.908Z,95977.59
2017-12-28T16:42:39.085Z,95980.41
2017-12-28T16:45:05.234Z,95982.83
2017-12-28T16:47:32.032Z,95983.50
2017-12-28T16:49:58.226Z,95986.70
2017-12-28T16:52:24.881Z,95991.69
2017-12-28T16:54:50.899Z,95990.80
2017-12-28T16:57:20.300Z,95999.18
2017-12-28T16:59:49.544Z,96001.81
2017-12-28T17:02:15.678Z,95997.08
2017-12-28T17:04:41.958Z,96001.56
2017-12-28T17:07:08.066Z,96002.06
2017-12-28T17:09:34.252Z,95996.36
2017-12-28T17:12:00.354Z,96003.91
2017-12-28T17:14:26.528Z,96007.19
2017-12-28T17:19:59.303Z,96025.93
2017-12-28T17:22:30.565Z,96025.57
2017-12-28T17:27:33.367Z,96032.94
2017-12-28T17:30:03.873Z,96035.18
2017-12-28T17:32:30.661Z,96039.63
2017-12-28T17:35:00.158Z,96036.39
2017-12-28T17:37:26.666Z,96038.93
2017-12-28T17:39:52.682Z,96043.24
2017-12-28T17:42:18.900Z,96048.45
2017-12-28T17:44:45.138Z,96054.52
2017-12-28T17:47:11.272Z,96060.31
2017-12-28T17:49:37.360Z,96057.32
2017-12-28T17:52:03.555Z,96062.17
2017-12-28T17:54:29.755Z,96070.50
2017-12-28T17:56:55.990Z,96070.22
2017-12-28T17:59:22.517Z,96082.65
2017-12-28T18:01:48.652Z,96081.92
2017-12-28T18:04:14.809Z,96072.87
2017-12-28T18:06:41.102Z,96077.67
2017-12-28T18:09:07.229Z,96076.98
2017-12-28T18:11:33.331Z,96075.88
2017-12-28T18:13:59.367Z,96080.06
2017-12-28T18:16:25.505Z,96083.31
2017-12-28T18:18:51.817Z,96087.20
2017-12-28T18:21:18.692Z,96089.84
2017-12-28T18:23:45.219Z,96090.09
2017-12-28T18:26:12.496Z,96098.90
2017-12-28T18:28:38.914Z,96098.90
2017-12-28T18:31:05.278Z,96103.35
2017-12-28T18:33:31.458Z,96108.03
2017-12-28T18:35:57.557Z,96114.55
2017-12-28T18:38:23.690Z,96113.98
2017-12-28T18:40:49.980Z,96119.52
2017-12-28T18:43:16.238Z,96126.68
2017-12-28T18:45:42.451Z,96132.39
2017-12-28T18:48:08.803Z,96134.95
2017-12-28T18:50:35.029Z,96129.03
2017-12-28T18:53:01.374Z,96128.70
2017-12-28T18:55:28.237Z,96134.51
2017-12-28T18:57:54.737Z,96141.59
2017-12-28T19:00:21.194Z,96142.74
2017-12-28T19:02:47.398Z,96145.91
2017-12-28T19:05:13.919Z,96146.91
2017-12-28T19:07:40.157Z,96147.93
2017-12-28T19:10:06.371Z,96152.95
2017-12-28T19:12:32.520Z,96156.54
2017-12-28T19:14:58.698Z,96162.28
2017-12-28T19:17:25.097Z,96167.55
2017-12-28T19:19:51.864Z,96165.80
2017-12-28T19:22:18.719Z,96166.30
2017-12-28T19:24:45.552Z,96168.08
2017-12-28T19:27:11.938Z,96172.63
2017-12-28T19:29:38.158Z,96176.69
2017-12-28T19:32:05.252Z,96183.34
2017-12-28T19:34:33.927Z,96180.28
2017-12-28T19:37:01.994Z,96184.84
2017-12-28T19:39:28.363Z,96190.64
2017-12-28T19:41:54.661Z,96187.93
2017-12-28T19:44:21.884Z,96189.05
2017-12-28T19:46:49.042Z,96190.73
2017-12-28T19:49:15.666Z,96189.08
2017-12-28T19:51:42.215Z,96189.91
2017-12-28T19:54:08.621Z,96195.77
2017-12-28T19:56:35.230Z,96196.83
2017-12-28T19:59:02.004Z,96205.66
2017-12-28T20:01:28.484Z,96206.72
2017-12-28T20:03:55.179Z,96210.70
2017-12-28T20:06:21.525Z,96213.84
2017-12-28T20:08:48.215Z,96217.73
2017-12-28T20:11:15.065Z,96210.67
2017-12-28T20:13:41.693Z,96212.45
2017-12-28T20:16:08.617Z,96214.20
2017-12-28T20:18:35.277Z,96216.88
2017-12-28T20:21:02.369Z,96217.27
2017-12-28T20:23:28.797Z,96215.88
2017-12-28T20:25:55.554Z,96217.56
2017-12-28T20:28:22.220Z,96222.54
2017-12-28T20:30:50.105Z,96232.09
2017-12-28T20:33:17.552Z,96235.72
2017-12-28T20:35:44.242Z,96236.47
2017-12-28T20:38:11.970Z,96244.45
2017-12-28T20:40:39.020Z,96247.38
2017-12-28T20:43:05.800Z,96248.06
2017-12-28T20:45:33.165Z,96249.71
2017-12-28T20:48:00.087Z,96250.40
2017-12-28T20:50:26.504Z,96254.97
2017-12-28T20:52:53.071Z,96261.20
2017-12-28T20:55:20.267Z,96260.21
2017-12-28T20:57:47.019Z,96262.56
2017-12-28T21:00:14.030Z,96258.05
2017-12-28T21:02:41.409Z,96263.21
2017-12-28T21:05:09.467Z,96262.41
2017-12-28T21:07:36.349Z,96259.23
2017-12-28T21:10:03.815Z,96265.50
2017-12-28T21:12:33.545Z,96266.61
2017-12-28T21:15:00.786Z,96276.42
2017-12-28T21:17:28.316Z,96272.47
2017-12-28T21:19:54.874Z,96274.09
2017-12-28T21:22:22.394Z,96281.65
2017-12-28T21:24:49.120Z,96285.08
2017-12-28T21:27:16.139Z,96284.55
2017-12-28T21:29:42.756Z,96284.79
2017-12-28T21:32:10.056Z,96289.80
2017-12-28T21:34:37.277Z,96299.34
2017-12-28T21:37:04.790Z,96297.37
2017-12-28T21:39:31.547Z,96303.84
2017-12-28T21:41:58.798Z,96301.63
2017-12-28T21:44:26.115Z,96313.83
2017-12-28T21:46:52.660Z,96319.40
2017-12-28T21:49:20.639Z,96319.21
2017-12-28T21:51:47.904Z,96327.42
2017-12-28T21:54:15.226Z,96335.23
2017-12-28T21:56:41.781Z,96333.02
2017-12-28T21:59:09.564Z,96337.34
2017-12-28T22:01:36.722Z,96339.09
2017-12-28T22:04:04.059Z,96335.27
2017-12-28T22:06:30.607Z,96344.19
2017-12-28T22:08:57.840Z,96346.48
2017-12-28T22:11:24.785Z,96348.23
2017-12-28T22:13:52.035Z,96342.30
2017-12-28T22:16:18.300Z,96342.95
2017-12-28T22:18:44.663Z,96350.61
2017-12-28T22:21:10.952Z,96347.19
2017-12-28T22:23:37.015Z,96356.96
2017-12-28T22:26:03.522Z,96351.84
2017-12-28T22:28:29.802Z,96355.95
2017-12-28T22:30:56.070Z,96355.25
2017-12-28T22:33:22.212Z,96360.81
2017-12-28T22:35:48.785Z,96364.79
2017-12-28T22:38:15.039Z,96370.03
2017-12-28T22:40:41.596Z,96371.28
2017-12-28T22:43:07.890Z,96371.38
2017-12-28T22:45:34.142Z,96381.03
2017-12-28T22:48:00.282Z,96380.17
2017-12-28T22:50:26.472Z,96388.56
2017-12-28T22:52:52.601Z,96395.58
2017-12-28T22:55:18.694Z,96394.27
2017-12-28T22:57:44.758Z,96393.47
2017-12-28T23:00:10.955Z,96402.27
2017-12-28T23:02:37.016Z,96401.84
2017-12-28T23:05:03.196Z,96388.63
2017-12-28T23:07:29.392Z,96388.94
2017-12-28T23:09:55.663Z,96385.34
2017-12-28T23:12:21.858Z,96389.14
2017-12-28T23:14:48.398Z,96388.69
2017-12-28T23:17:14.533Z,96391.27
2017-12-28T23:19:40.759Z,96392.64
2017-12-28T23:22:06.955Z,96389.94
2017-12-28T23:24:33.187Z,96394.26
2017-12-28T23:26:59.375Z,96392.42
2017-12-28T23:29:25.729Z,96394.44
2017-12-28T23:31:51.868Z,96404.77
2017-12-28T23:34:18.107Z,96403.11
2017-12-28T23:36:44.161Z,96406.81
2017-12-28T23:39:10.534Z,96412.27
2017-12-28T23:41:36.673Z,96418.20
2017-12-28T23:44:02.784Z,96425.13
2017-12-28T23:46:28.942Z,96421.58
2017-12-28T23:48:55.362Z,96421.64
2017-12-28T23:51:21.492Z,96426.48
2017-12-28T23:53:47.630Z,96421.86
2017-12-28T23:56:13.937Z,96427.75
2017-12-28T23:58:40.108Z,96430.91
